• Join FlightAware (Why Join?)
  • Login
  • US Flag 
04:34AM EDT


 

Airport Tracker/Info


-or-


 

Live Flight TrackerFlight Track Log ✈ CEY502 ✈ 01-May-2013 ✈ SVBM / BRM - TJSJ / SJU

Flight Track Log - Related Links

Times and Time Zones

All times are in EDT time to prevent confusion due to time zone crossing. See the CEY502 flight status page for this flight to view local times or setup timezone preferences in your user account.

Time Position Orientation Groundspeed Altitude Reporting Facility
EDT Latitude Longitude Course Direction KTS MPH feet Rate Location/Type
07:50AM 12.1015 -68.6987 18° North  Level FlightAware Approximate
07:51AM 12.1630 -68.6784 18° North  Level FlightAware Approximate
07:52AM 12.2246 -68.6580 18° North  Level FlightAware Approximate
07:53AM 12.2861 -68.6377 18° North  Level FlightAware Approximate
07:54AM 12.3476 -68.6173 18° North  Level FlightAware Approximate
07:55AM 12.4092 -68.5971 17° North  Level FlightAware Approximate
07:56AM 12.4710 -68.5773 17° North  Level FlightAware Approximate
07:57AM 12.5327 -68.5575 17° North  Level FlightAware Approximate
07:58AM 12.5944 -68.5378 17° North  Level FlightAware Approximate
07:59AM 12.6561 -68.5180 17° North  Level FlightAware Approximate
08:00AM 12.7179 -68.4982 17° North  Level FlightAware Approximate
08:01AM 12.7796 -68.4784 17° North  Level FlightAware Approximate
08:02AM 12.8413 -68.4586 17° North  Level FlightAware Approximate
08:03AM 12.9030 -68.4388 17° North  Level FlightAware Approximate
08:04AM 12.9648 -68.4190 17° North  Level FlightAware Approximate
08:05AM 13.0265 -68.3992 17° North  Level FlightAware Approximate
08:06AM 13.0882 -68.3793 17° North  Level FlightAware Approximate
08:07AM 13.1499 -68.3595 17° North  Level FlightAware Approximate
08:08AM 13.2116 -68.3396 17° North  Level FlightAware Approximate
08:09AM 13.2733 -68.3198 17° North  Level FlightAware Approximate
08:10AM 13.3351 -68.2999 17° North  Level FlightAware Approximate
08:11AM 13.3968 -68.2800 17° North  Level FlightAware Approximate
08:12AM 13.4585 -68.2601 17° North  Level FlightAware Approximate
08:13AM 13.5202 -68.2402 17° North  Level FlightAware Approximate
08:14AM 13.5819 -68.2203 17° North  Level FlightAware Approximate
08:15AM 13.6436 -68.2003 17° North  Level FlightAware Approximate
08:16AM 13.7053 -68.1804 17° North  Level FlightAware Approximate
08:17AM 13.7670 -68.1604 17° North  Level FlightAware Approximate
08:18AM 13.8287 -68.1404 17° North  Level FlightAware Approximate
08:19AM 13.8904 -68.1205 17° North  Level FlightAware Approximate
08:20AM 13.9521 -68.1005 17° North  Level FlightAware Approximate
08:21AM 14.0138 -68.0805 17° North  Level FlightAware Approximate
08:22AM 14.0755 -68.0605 17° North  Level FlightAware Approximate
08:23AM 14.1372 -68.0404 17° North  Level FlightAware Approximate
08:24AM 14.1989 -68.0204 17° North  Level FlightAware Approximate
08:25AM 14.2605 -68.0004 17° North  Level FlightAware Approximate
08:26AM 14.3222 -67.9803 17° North  Level FlightAware Approximate
08:27AM 14.3839 -67.9603 17° North  Level FlightAware Approximate
08:28AM 14.4456 -67.9402 17° North  Level FlightAware Approximate
08:29AM 14.5073 -67.9201 18° North  Level FlightAware Approximate
08:30AM 14.5689 -67.8999 18° North  Level FlightAware Approximate
08:31AM 14.6306 -67.8797 18° North  Level FlightAware Approximate
08:32AM 14.6922 -67.8595 18° North  Level FlightAware Approximate
08:33AM 14.7539 -67.8393 18° North  Level FlightAware Approximate
08:34AM 14.8155 -67.8190 18° North  Level FlightAware Approximate
08:35AM 14.8772 -67.7988 18° North  Level FlightAware Approximate
08:36AM 14.9388 -67.7785 18° North  Level FlightAware Approximate
08:37AM 15.0005 -67.7583 18° North  Level FlightAware Approximate
08:38AM 15.0621 -67.7380 18° North  Level FlightAware Approximate
08:39AM 15.1237 -67.7177 18° North  Level FlightAware Approximate
08:40AM 15.1854 -67.6974 18° North  Level FlightAware Approximate
08:41AM 15.2470 -67.6771 18° North  Level FlightAware Approximate
08:42AM 15.3086 -67.6568 18° North  Level FlightAware Approximate
08:43AM 15.3703 -67.6365 18° North  Level FlightAware Approximate
08:44AM 15.4319 -67.6161 18° North  Level FlightAware Approximate
08:45AM 15.4935 -67.5958 18° North  Level FlightAware Approximate
08:46AM 15.5552 -67.5754 18° North  Level FlightAware Approximate
08:47AM 15.6168 -67.5551 18° North  Level FlightAware Approximate
08:48AM 15.6784 -67.5347 18° North  Level FlightAware Approximate
08:49AM 15.7400 -67.5143 18° North  Level FlightAware Approximate
08:50AM 15.8016 -67.4938 18° North  Level FlightAware Approximate
08:51AM 15.8617 -67.4692 26° Northeast  Level FlightAware Approximate
08:52AM 15.9223 -67.4458 20° North  Level FlightAware Approximate
08:53AM 15.9831 -67.4230 20° North  Level FlightAware Approximate
08:54AM 16.0439 -67.4002 20° North  Level FlightAware Approximate
08:55AM 16.1048 -67.3774 20° North  Level FlightAware Approximate
08:55AM 15.9833 -67.4000 22° Northeast 240 276 19,000  Level San Juan Center
08:56AM 16.1651 -67.3532 22° Northeast  Level FlightAware Approximate
08:56AM 16.0333 -67.3833 18° North 230 265 19,000  Level San Juan Center
08:57AM 16.2250 -67.3278 22° Northeast  Level FlightAware Approximate
08:57AM 16.1000 -67.3500 26° Northeast 220 253 19,000  Level San Juan Center
08:58AM 16.2849 -67.3024 22° Northeast  Level FlightAware Approximate
08:58AM 16.1667 -67.3333 14° North 240 276 19,000  Level San Juan Center
08:59AM 16.3448 -67.2769 22° Northeast  Level FlightAware Approximate
08:59AM 16.2167 -67.3000 33° Northeast 230 265 19,000  Level San Juan Center
09:00AM 16.4047 -67.2515 22° Northeast  Level FlightAware Approximate
09:00AM 16.2833 -67.2833 13° North 230 265 19,000  Level San Juan Center
09:01AM 16.3333 -67.2667 18° North 230 265 19,000  Level San Juan Center
09:02AM 16.4000 -67.2500 13° North 230 265 19,000  Level San Juan Center
09:03AM 16.4667 -67.2167 26° Northeast 230 265 19,000  Level San Juan Center
09:04AM 16.5333 -67.2000 13° North 230 265 19,000  Level San Juan Center
09:05AM 16.5833 -67.1833 18° North 240 276 19,000  Level San Juan Center
09:06AM 16.6500 -67.1500 26° Northeast 230 265 19,000  Level San Juan Center
09:07AM 16.7000 -67.1333 18° North 240 276 19,000  Level San Juan Center
09:08AM 16.7667 -67.1000 26° Northeast 230 265 19,000  Level San Juan Center
09:09AM 16.8333 -67.0833 13° North 220 253 19,000  Level San Juan Center
09:10AM 16.8833 -67.0500 33° Northeast 240 276 19,000  Level San Juan Center
09:11AM 16.9500 -67.0167 26° Northeast 240 276 19,000  Level San Juan Center
09:12AM 17.0000 -67.0000 18° North 240 276 19,000  Level San Juan Center
09:13AM 17.0833 -66.9667 21° North 240 276 19,000  Level San Juan Center
09:14AM 17.1333 -66.9500 18° North 230 265 19,000  Level San Juan Center
09:15AM 17.2000 -66.9167 26° Northeast 230 265 19,000 -60 Level San Juan Center
09:16AM 17.2500 -66.8833 32° Northeast 230 265 18,900  Descending San Juan Center
09:17AM 17.3167 -66.8667 13° North 240 276 19,000  Climbing San Juan Center
09:18AM 17.3667 -66.8333 32° Northeast 220 253 19,000  Level San Juan Center
09:19AM 17.4333 -66.8167 13° North 230 265 19,000  Level San Juan Center
09:20AM 17.4833 -66.7833 32° Northeast 220 253 19,000  Level San Juan Center
09:21AM 17.5500 -66.7667 13° North 230 265 19,000 -180 Level San Juan Center
09:22AM 17.6000 -66.7333 32° Northeast 230 265 18,700 -780 Descending San Juan Center
09:23AM 17.6667 -66.7167 13° North 260 299 17,500 -1,200 Descending San Juan Center
09:24AM 17.7500 -66.6833 21° North 270 311 16,400 -1,320 Descending San Juan Center
09:25AM 17.8167 -66.6500 25° Northeast 280 322 14,900 -1,560 Descending San Juan Center
09:26AM 17.9000 -66.6333 11° North 290 334 13,300 -1,680 Descending San Juan Center
09:27AM 17.9667 -66.6000 25° Northeast 280 322 11,600 -1,980 Descending San Juan Center
09:28AM 18.0500 -66.5833 11° North 290 334 9,400 -2,100 Descending San Juan Center
09:29AM 18.1167 -66.5500 25° Northeast 250 288 7,500 -1,200 Descending San Juan Center
09:30AM 18.1833 -66.5333 13° North 230 265 7,000 -300 Descending San Juan Center
09:31AM 18.2333 -66.5000 32° Northeast 210 242 7,000  Level San Juan Center
09:32AM 18.2667 -66.4500 55° Northeast 210 242 7,000  Level San Juan Center
09:33AM 18.2833 -66.4000 71° East 200 230 7,000 -480 Level San Juan Center
09:34AM 18.3167 -66.3500 55° Northeast 230 265 6,100 -1,320 Descending San Juan Center
09:35AM 18.3833 -66.3167 25° Northeast 240 276 4,400 -1,200 Descending San Juan Center
09:36AM 18.4167 -66.2667 55° Northeast 200 230 3,700 -1,080 Descending San Juan Center
09:37AM 18.4333 -66.2167 71° East 180 207 2,300 -900 Descending San Juan Center
09:38AM 18.4333 -66.1667 90° East 170 196 2,000 -180 Descending San Juan Center
09:39AM 18.4333 -66.1167 90° East 170 196 2,000 -300 Level San Juan Center
09:40AM 18.4333 -66.0667 90° East 170 196 1,400 -840 Descending San Juan Center
09:41AM 18.4333 -66.0167 90° East 110 127 400 -1,020 Descending San Juan Center